Weather observations for the past three days for
Sherman/Denison, Grayson County Airport
Imperial (Metric)
Date Time (cdt) Wind (mph) Vis. (mi.) Weather Sky Cond. Temperature (ºF) Relative Humidity Wind Chill (°F) Heat Index (°F) Pressure Precipitation (in)
Air Dwpt 6 hour altimeter (in) sea level (mb) 1 hr 3 hr 6 hr
Max. Min.
04 19:15 SE 14 10.00 Fair CLR 94.1 67.5 42% 98 29.88 0.0
04 18:50 S 12 10.00 Fair CLR 95 68 41% 100 29.88 0.0
04 17:50 S 9 10.00 Fair CLR 96.8 66.2 37% 100 29.88 0.0
04 16:55 SE 12 10.00 Mostly Cloudy BKN070 96.8 66.2 37% 100 29.89 0.0
04 15:47 SW 12 10.00 Mostly Cloudy BKN065 98.6 68 37% 104 29.9 0.0
04 14:55 S 10 9.00 Partly Cloudy SCT065 98.6 68 37% 104 29.91 0.0
04 13:55 S 16 G 23 10.00 Fair CLR 96.8 66.2 37% 100 29.95 0.0
04 12:50 S 7 G 21 10.00 Fair CLR 95 68 41% 100 29.97 0.0
04 11:50 S 12 10.00 Fair CLR 91.4 69.8 49% 97 29.97 0.0
04 10:55 S 12 10.00 Fair CLR 87.8 71.6 59% 94 29.99 0.0
04 09:50 SE 12 10.00 Fair CLR 84.2 73.4 70% 91 29.99 0.0
04 08:50 SE 10 10.00 Fair CLR 78.8 73.4 84% 82 29.98 0.0
04 07:50 SE 8 10.00 Fair CLR 75.2 73.4 94% 74 29.97 0.0
04 06:50 SE 6 10.00 Fair CLR 75.2 71.6 89% 75 29.96 0.0
04 06:35 SE 8 10.00 Fair CLR 75.6 71.4 87% 76 29.95 0.0
04 06:15 SE 8 10.00 Fair CLR 75.6 71.4 87% 76 29.95 0.0
04 05:55 SE 6 10.00 Fair CLR 76.1 71.2 85% 77 29.94 0.0
04 05:35 SE 8 10.00 Fair CLR 76.5 71.2 84% 77 29.94 0.0
04 05:15 SE 7 10.00 Fair CLR 77 71.2 82% 78 29.94 0.0
04 04:55 SE 7 10.00 Fair CLR 77.4 70.9 81% 79 29.94 0.0
04 04:35 SE 9 10.00 Fair CLR 77.5 70.9 80% 79 29.94 0.0
04 04:15 SE 9 10.00 Fair CLR 77.4 70.3 79% 79 29.94 0.0
04 03:55 S 7 10.00 Fair CLR 76.6 69.8 79% 78 29.94 0.0
04 03:35 S 7 10.00 Fair CLR 77 69.4 78% 79 29.94 0.0
04 03:15 S 8 10.00 Fair CLR 77.4 69.4 77% 79 29.93 0.0
04 02:55 S 8 10.00 Fair CLR 77.7 69.3 75% 80 29.94 0.0
04 02:35 S 10 10.00 Fair CLR 78.1 69.3 74% 80 29.93 0.0
04 02:15 S 10 10.00 Fair CLR 77.9 69.1 74% 80 29.94 0.0
04 01:55 S 9 10.00 Fair CLR 78.4 68.9 73% 81 29.94 0.0
04 01:35 S 13 10.00 Fair CLR 78.6 68.7 72% 81 29.94 0.0
04 01:15 S 10 10.00 Fair CLR 79.2 68.9 71% 82 29.94 0.0
04 00:55 S 12 10.00 Fair CLR 79 69.6 87.1 79 73% 82 29.94 0.0
04 00:35 S 12 10.00 Fair CLR 79.2 70.2 74% 82 29.94 0.0
04 00:15 S 9 10.00 Fair CLR 79.3 70.9 75% 82 29.94 0.0
03 23:55 S 9 10.00 Fair CLR 79.7 71.4 76% 83 29.94 0.0
03 23:35 S 8 10.00 Fair CLR 79.9 71.6 76% 83 29.94 0.0
03 23:15 S 9 10.00 Fair CLR 81.3 71.6 72% 86 29.93 0.0
03 22:55 SE 12 10.00 Fair CLR 81.9 71.6 71% 86 29.94 0.0
03 22:35 SE 10 10.00 Partly Cloudy SCT085 82.2 71.1 69% 87 29.94 0.0
03 22:15 SE 10 10.00 Overcast OVC085 82.6 70.7 67% 87 29.94 0.0
03 21:55 SE 8 10.00 Mostly Cloudy BKN080 83.3 70.3 65% 88 29.94 0.0
03 21:35 S 7 10.00 A Few Clouds FEW080 82.9 70 65% 87 29.93 0.0
03 21:15 SE 9 10.00 Fair CLR 83.5 69.8 64% 88 29.92 0.0
03 20:55 SE 10 10.00 Fair CLR 84 69.8 62% 88 29.9 0.0
03 20:35 SE 9 10.00 Fair CLR 84 70.7 64% 89 29.9 0.0
03 20:15 SE 12 10.00 Fair CLR 84.2 72 67% 90 29.9 0.0
03 19:55 SE 12 10.00 Fair CLR 85.8 71.2 62% 91 29.89 0.0
03 19:35 SE 8 10.00 Fair CLR 86.2 71.6 62% 92 29.89 0.0
03 19:15 SE 10 10.00 Fair CLR 87.1 71.4 60% 93 29.89 0.0
03 17:50 SE 9 10.00 Mostly Cloudy BKN095 87.8 71.6 59% 94 29.88 0.0
03 16:50 SE 12 10.00 Mostly Cloudy BKN075 BKN090 87.8 71.6 59% 94 29.89 0.0
03 15:50 SE 14 10.00 Overcast BKN080 OVC090 86 73.4 66% 93 29.91 0.0
03 14:50 SE 15 10.00 Overcast SCT027 BKN040 OVC070 86 75.2 70% 95 29.94 0.0
03 13:50 SE 15 10.00 Overcast SCT027 BKN040 OVC070 86 75.2 70% 95 29.94 0.0
03 12:50 SE 14 10.00 Overcast FEW018 SCT023 OVC060 82.4 77 84% 91 29.96 0.0
03 10:50 SE 9 10.00 Overcast SCT018 OVC038 82.4 73.4 74% 88 29.96 0.0
03 09:50 SE 13 10.00 Overcast BKN013 OVC024 80.6 73.4 79% 85 29.97 0.0
03 08:50 SE 10 10.00 Overcast BKN009 BKN014 OVC028 77 73.4 89% 78 29.97 0.0
03 07:50 SE 8 10.00 Overcast OVC009 77 73.4 89% 78 29.95 0.0
03 06:55 E 6 10.00 Overcast OVC011 77 73.4 89% 78 29.95 0.0
03 06:50 E 6 10.00 Fair CLR 77 73.4 89% 78 29.95 0.0
03 06:35 SE 7 10.00 Overcast OVC011 76.8 73.2 89% 78 29.95 0.0
03 06:15 SE 7 10.00 Overcast BKN012 BKN019 OVC027 77.2 72.7 86% 79 29.94 0.0
03 05:55 SE 12 10.00 Overcast BKN014 BKN020 OVC025 77.5 72.7 85% 79 29.94 0.0
03 05:35 SE 13 10.00 Overcast BKN017 OVC025 77.9 72.5 84% 80 29.94 0.0
03 05:15 SE 13 10.00 Overcast BKN020 OVC027 78.6 72.3 81% 82 29.93 0.0
03 04:55 SE 7 10.00 Mostly Cloudy BKN025 78.6 72.3 81% 82 29.93 0.0
03 04:35 SE 7 10.00 Partly Cloudy SCT025 78.3 72 81% 81 29.93 0.0
03 04:15 SE 12 10.00 Fair CLR 77.9 72 82% 80 29.93 0.0
03 03:55 SE 9 10.00 Fair CLR 78.1 71.4 80% 80 29.94 0.0
03 03:35 E 7 10.00 Fair CLR 77.9 70.9 79% 80 29.94 0.0
03 03:15 SE 7 10.00 Fair CLR 78.3 70.3 77% 81 29.94 0.0
03 02:55 SE 9 10.00 A Few Clouds FEW023 79 70.3 75% 82 29.94 0.0
03 02:35 SE 12 10.00 Fair CLR 79 70.3 75% 82 29.94 0.0
03 02:15 SE 9 10.00 Fair CLR 79.2 69.8 73% 82 29.94 0.0
03 01:55 SE 8 10.00 Fair CLR 79.5 69.8 72% 82 29.94 0.0
03 01:35 SE 7 10.00 Fair CLR 80.1 69.8 71% 83 29.94 0.0
03 01:15 SE 13 10.00 Fair CLR 80.6 69.8 70% 84 29.95 0.0
03 00:55 SE 14 10.00 Fair CLR 81.7 69.1 95.4 81.7 66% 85 29.96 0.0
03 00:35 SE 14 G 18 10.00 Fair CLR 82.4 68.9 64% 86 29.96 0.0
03 00:15 SE 14 10.00 Fair CLR 83.1 68.7 62% 87 29.95 0.0
02 23:55 SE 10 10.00 Fair CLR 84 68.4 59% 87 29.95 0.0
02 23:35 SE 10 10.00 Fair CLR 84.7 68.4 58% 88 29.95 0.0
02 23:15 SE 12 10.00 Fair CLR 85.5 68.5 57% 89 29.95 0.0
02 22:55 SE 12 10.00 Fair CLR 86.2 68.9 56% 90 29.95 0.0
02 22:35 SE 10 10.00 Fair CLR 86.7 68.7 55% 91 29.95 0.0
02 22:15 SE 13 10.00 Fair CLR 87.4 68.2 53% 91 29.95 0.0
02 21:55 SE 10 10.00 Fair CLR 88.3 67.8 51% 92 29.95 0.0
02 21:35 SE 10 10.00 Fair CLR 88.7 68.2 51% 93 29.94 0.0
02 21:15 SE 13 10.00 Fair CLR 89.6 68.9 51% 94 29.93 0.0
02 20:55 SE 12 10.00 A Few Clouds FEW065 90.3 69.1 50% 95 29.92 0.0
02 20:35 SE 14 10.00 Partly Cloudy SCT065 91 68.9 48% 96 29.91 0.0
02 20:15 E 17 10.00 Partly Cloudy SCT065 92.3 68.7 46% 97 29.91 0.0
02 19:55 E 10 9.00 Fair CLR 93.2 66.6 42% 97 29.9 0.0
02 19:35 E 10 9.00 Fair CLR 93.9 66.6 41% 97 29.9 0.0
02 19:15 E 9 9.00 Fair CLR 94.8 66 39% 98 29.9 0.0
02 18:50 E 10 10.00 Fair CLR 96.8 66.2 37% 100 29.9 0.0
02 17:50 E 10 10.00 Fair CLR 96.8 64.4 34% 99 29.9 0.0
02 16:50 E 10 10.00 Partly Cloudy SCT065 98.6 66.2 35% 103 29.91 0.0
02 15:50 NE 7 10.00 Partly Cloudy SCT065 96.8 66.2 37% 100 29.93 0.0
02 14:50 NE 3 10.00 Partly Cloudy SCT060 95 66.2 39% 98 29.95 0.0
02 13:50 SE 7 10.00 Partly Cloudy SCT060 96.8 68 39% 102 29.98 0.0
02 12:50 SE 7 10.00 Fair CLR 93.2 66.2 41% 96 30.01 0.0
02 11:50 SE 9 10.00 Fair CLR 93.2 68 44% 98 30.03 0.0
02 10:50 Vrbl 6 10.00 Fair CLR 89.6 68 49% 93 30.04 0.0
02 09:50 Vrbl 6 10.00 Fair CLR 89.6 68 49% 93 30.04 0.0
02 08:50 SE 8 10.00 Fair CLR 82.4 69.8 66% 86 30.04 0.0
02 07:50 Calm 10.00 Fair CLR 77 69.8 79% 79 30.02 0.0
02 06:50 Calm 10.00 Fair CLR 75.2 69.8 83% 75 30.01 0.0
02 06:35 E 5 10.00 Fair CLR 76.5 69.6 79% 78 30.01 0.0
02 06:15 E 5 10.00 Fair CLR 74.7 69.4 84% 30.01 0.0
02 05:55 E 3 10.00 Fair CLR 75.4 69.4 82% 76 30.01 0.0
02 05:35 E 3 10.00 Fair CLR 76.1 69.4 80% 77 30.01 0.0
02 05:15 E 3 10.00 Fair CLR 76.6 69.6 79% 78 30.01 0.0
02 04:55 Calm 10.00 Fair CLR 78.4 69.4 74% 81 30.01 0.0
02 04:35 Calm 10.00 Fair CLR 79 69.3 72% 82 30.01 0.0
02 04:15 Calm 10.00 Fair CLR 79.2 69.4 72% 82 30.01 0.0
02 03:55 S 6 10.00 Fair CLR 80.4 69.4 69% 84 30.01 0.0
02 03:35 S 7 10.00 Fair CLR 81 69.4 68% 84 30.01 0.0
02 03:15 S 7 10.00 Fair CLR 82.2 69.4 65% 86 30.01 0.0
02 02:55 S 8 10.00 Fair CLR 83.3 69.3 63% 87 30.01 0.0
02 02:35 S 9 10.00 Fair CLR 83.5 69.1 62% 87 30.01 0.0
02 02:15 S 10 10.00 Fair CLR 84 69.1 61% 88 30.01 0.0
02 01:55 SE 10 10.00 Fair CLR 84.4 68.5 59% 88 30.01 0.0
02 01:35 SE 12 10.00 Fair CLR 84.9 68.2 57% 88 30 0.0
02 01:15 SE 12 10.00 Fair CLR 85.5 67.8 56% 89 30 0.0
02 00:55 SE 10 10.00 Fair CLR 86.4 67.3 97.7 86.4 53% 89 29.99 0.0
02 00:35 SE 12 10.00 Fair CLR 87.1 66.7 51% 90 29.99 0.0
02 00:15 SE 14 10.00 Fair CLR 87.8 65.7 48% 90 29.99 0.0
01 23:55 SE 12 10.00 Fair CLR 88.5 66.2 48% 91 29.99 0.0
01 23:35 SE 13 10.00 A Few Clouds FEW120 88.7 66.2 47% 91 29.99 0.0
01 23:15 SE 9 10.00 Partly Cloudy SCT120 88.5 66.6 48% 91 29.99 0.0
01 22:55 SE 5 10.00 Fair CLR 88.3 66.4 48% 91 29.99 0.0
01 22:35 SE 7 10.00 Fair CLR 88.9 66.4 47% 92 29.99 0.0
01 22:15 SE 8 10.00 A Few Clouds FEW130 89.6 66.2 46% 92 29.98 0.0
01 21:55 SE 9 10.00 Fair CLR 90.7 66 44% 93 29.97 0.0
01 21:35 SE 8 10.00 Fair CLR 90.7 65.5 43% 93 29.97 0.0
01 21:15 SE 7 10.00 Fair CLR 91 64.8 42% 93 29.96 0.0
01 20:55 SE 6 10.00 Fair CLR 91 64.6 42% 93 29.94 0.0
01 20:35 SE 6 10.00 Fair CLR 91.4 64.2 41% 93 29.94 0.0
01 20:15 SE 6 10.00 Fair CLR 92.3 64.2 39% 94 29.93 0.0
01 19:55 SE 6 9.00 Fair CLR 94.1 63.9 37% 96 29.93 0.0
Date Time (cdt) Wind (mph) Vis. (mi.) Weather Sky Cond. Air Dwpt Max. Min. Relative Humidity Wind Chill (°F) Heat Index (°F) altimeter (in) sea level (mb) 1 hr 3 hr 6 hr
6 hour
Temperature (ºF) Pressure Precipitation (in)